Terminal Aerodrome Forecast
Issued by NWS Charleston, WV

Current Version | Previous Version | Graphics & Text | Print | Product List | Glossary On
Versions: 1 2 3 4 5 6 7 8 9 10 11 12 13 14 15 16 17 18 19 20 21 22 23 24
000
FTUS41 KRLX 180800 AAA
TAFCRW
TAF AMD
KCRW 180826Z 1808/1906 00000KT 6SM BR SCT040
     FM181000 00000KT 3SM BR SCT035
     FM181100 00000KT 1SM BR BKN003
     FM181230 00000KT 4SM BR BKN010
     FM181300 00000KT P6SM SCT015
     FM181400 00000KT P6SM SCT250
     FM181800 03006KT P6SM SCT250
     FM190300 07006KT P6SM FEW050=

USA.gov is the U.S. government's official web portal to all federal, state and local government web resources and services.